sensor_id;sensor_type;location;lat;lon;timestamp;pressure;altitude;pressure_sealevel;temperature;humidity
39177;BME280;24904;52.208;21.192;2023-02-28T00:00:44;102038.55;;;-2.20;61.86
39177;BME280;24904;52.208;21.192;2023-02-28T00:05:49;102038.02;;;-2.27;61.79
39177;BME280;24904;52.208;21.192;2023-02-28T00:10:54;102041.66;;;-2.32;61.92
39177;BME280;24904;52.208;21.192;2023-02-28T00:16:04;102045.66;;;-2.35;61.97
39177;BME280;24904;52.208;21.192;2023-02-28T00:21:10;102046.27;;;-2.41;62.08
39177;BME280;24904;52.208;21.192;2023-02-28T00:26:15;102052.02;;;-2.53;61.97
39177;BME280;24904;52.208;21.192;2023-02-28T00:31:22;102053.52;;;-2.61;62.48
39177;BME280;24904;52.208;21.192;2023-02-28T00:36:27;102056.48;;;-2.66;62.59
39177;BME280;24904;52.208;21.192;2023-02-28T00:41:33;102056.71;;;-2.73;62.88
39177;BME280;24904;52.208;21.192;2023-02-28T00:46:38;102059.23;;;-2.74;63.11
39177;BME280;24904;52.208;21.192;2023-02-28T00:51:43;102057.66;;;-2.81;63.08
39177;BME280;24904;52.208;21.192;2023-02-28T00:56:49;102053.35;;;-2.92;63.06
39177;BME280;24904;52.208;21.192;2023-02-28T01:01:54;102051.23;;;-3.01;63.24
39177;BME280;24904;52.208;21.192;2023-02-28T01:06:59;102054.23;;;-3.08;63.54
39177;BME280;24904;52.208;21.192;2023-02-28T01:12:07;102050.33;;;-3.13;63.53
39177;BME280;24904;52.208;21.192;2023-02-28T01:17:12;102047.30;;;-3.16;63.87
39177;BME280;24904;52.208;21.192;2023-02-28T01:22:18;102049.68;;;-3.24;63.97
39177;BME280;24904;52.208;21.192;2023-02-28T01:27:23;102048.42;;;-3.21;64.22
39177;BME280;24904;52.208;21.192;2023-02-28T01:32:30;102047.27;;;-3.19;63.94
39177;BME280;24904;52.208;21.192;2023-02-28T01:37:35;102053.83;;;-3.22;64.04
39177;BME280;24904;52.208;21.192;2023-02-28T01:42:40;102056.45;;;-3.31;63.95
39177;BME280;24904;52.208;21.192;2023-02-28T01:47:46;102060.96;;;-3.35;64.17
39177;BME280;24904;52.208;21.192;2023-02-28T01:52:55;102062.88;;;-3.32;64.35
39177;BME280;24904;52.208;21.192;2023-02-28T01:58:04;102062.02;;;-3.38;64.02
39177;BME280;24904;52.208;21.192;2023-02-28T02:03:14;102061.53;;;-3.47;64.34
39177;BME280;24904;52.208;21.192;2023-02-28T02:08:25;102052.34;;;-3.51;64.54
39177;BME280;24904;52.208;21.192;2023-02-28T02:13:58;102051.59;;;-3.56;64.43
39177;BME280;24904;52.208;21.192;2023-02-28T02:19:21;102051.81;;;-3.59;64.76
39177;BME280;24904;52.208;21.192;2023-02-28T02:24:51;102053.02;;;-3.63;64.56
39177;BME280;24904;52.208;21.192;2023-02-28T02:30:31;102056.42;;;-3.63;65.14
39177;BME280;24904;52.208;21.192;2023-02-28T02:35:42;102054.81;;;-3.63;64.64
39177;BME280;24904;52.208;21.192;2023-02-28T02:41:02;102055.63;;;-3.62;64.97
39177;BME280;24904;52.208;21.192;2023-02-28T02:46:14;102059.98;;;-3.62;65.07
39177;BME280;24904;52.208;21.192;2023-02-28T02:51:23;102064.90;;;-3.68;65.27
39177;BME280;24904;52.208;21.192;2023-02-28T02:56:31;102067.02;;;-3.69;65.13
39177;BME280;24904;52.208;21.192;2023-02-28T03:01:39;102068.17;;;-3.68;65.05
39177;BME280;24904;52.208;21.192;2023-02-28T03:06:45;102073.44;;;-3.68;65.04
39177;BME280;24904;52.208;21.192;2023-02-28T03:11:50;102071.27;;;-3.72;64.81
39177;BME280;24904;52.208;21.192;2023-02-28T03:17:06;102072.16;;;-3.78;65.06
39177;BME280;24904;52.208;21.192;2023-02-28T03:28:00;102072.08;;;-3.81;65.03
39177;BME280;24904;52.208;21.192;2023-02-28T03:33:10;102072.23;;;-3.81;65.11
39177;BME280;24904;52.208;21.192;2023-02-28T03:38:21;102075.48;;;-3.83;65.07
39177;BME280;24904;52.208;21.192;2023-02-28T03:43:30;102077.13;;;-3.82;65.17
39177;BME280;24904;52.208;21.192;2023-02-28T03:48:40;102076.77;;;-3.79;65.19
39177;BME280;24904;52.208;21.192;2023-02-28T03:53:49;102080.56;;;-3.77;65.09
39177;BME280;24904;52.208;21.192;2023-02-28T03:59:00;102084.02;;;-3.76;65.32
39177;BME280;24904;52.208;21.192;2023-02-28T04:04:07;102085.23;;;-3.76;65.36
39177;BME280;24904;52.208;21.192;2023-02-28T04:09:14;102081.06;;;-3.80;65.17
39177;BME280;24904;52.208;21.192;2023-02-28T04:14:20;102082.14;;;-3.86;65.22
39177;BME280;24904;52.208;21.192;2023-02-28T04:19:25;102080.67;;;-3.98;65.01
39177;BME280;24904;52.208;21.192;2023-02-28T04:24:30;102082.47;;;-4.04;65.34
39177;BME280;24904;52.208;21.192;2023-02-28T04:29:35;102084.59;;;-4.03;65.34
39177;BME280;24904;52.208;21.192;2023-02-28T04:34:41;102087.58;;;-3.96;65.33
39177;BME280;24904;52.208;21.192;2023-02-28T04:39:46;102090.91;;;-4.00;65.13
39177;BME280;24904;52.208;21.192;2023-02-28T04:44:51;102088.86;;;-4.03;65.08
39177;BME280;24904;52.208;21.192;2023-02-28T04:49:56;102094.52;;;-4.23;65.04
39177;BME280;24904;52.208;21.192;2023-02-28T04:55:01;102094.05;;;-4.29;65.53
39177;BME280;24904;52.208;21.192;2023-02-28T05:00:08;102090.98;;;-4.27;65.82
39177;BME280;24904;52.208;21.192;2023-02-28T05:05:15;102098.79;;;-4.28;65.63
39177;BME280;24904;52.208;21.192;2023-02-28T05:10:21;102105.91;;;-4.34;65.63
39177;BME280;24904;52.208;21.192;2023-02-28T05:15:27;102111.84;;;-4.33;65.80
39177;BME280;24904;52.208;21.192;2023-02-28T05:20:33;102119.17;;;-4.35;65.68
39177;BME280;24904;52.208;21.192;2023-02-28T05:25:38;102124.88;;;-4.38;65.93
39177;BME280;24904;52.208;21.192;2023-02-28T05:30:43;102135.50;;;-4.35;66.33
39177;BME280;24904;52.208;21.192;2023-02-28T05:35:48;102137.60;;;-4.25;66.51
39177;BME280;24904;52.208;21.192;2023-02-28T05:40:54;102139.41;;;-4.18;65.88
39177;BME280;24904;52.208;21.192;2023-02-28T05:46:01;102143.10;;;-4.16;65.95
39177;BME280;24904;52.208;21.192;2023-02-28T05:51:07;102149.45;;;-4.16;65.89
39177;BME280;24904;52.208;21.192;2023-02-28T05:56:13;102154.38;;;-4.08;66.25
39177;BME280;24904;52.208;21.192;2023-02-28T06:01:32;102159.89;;;-4.04;65.85
39177;BME280;24904;52.208;21.192;2023-02-28T06:06:36;102163.95;;;-4.00;66.07
39177;BME280;24904;52.208;21.192;2023-02-28T06:11:43;102167.71;;;-3.93;66.20
39177;BME280;24904;52.208;21.192;2023-02-28T06:16:48;102169.30;;;-3.81;66.26
39177;BME280;24904;52.208;21.192;2023-02-28T06:21:54;102159.48;;;-3.68;66.43
39177;BME280;24904;52.208;21.192;2023-02-28T06:27:00;102164.71;;;-3.51;66.68
39177;BME280;24904;52.208;21.192;2023-02-28T06:32:08;102167.69;;;-3.31;66.83
39177;BME280;24904;52.208;21.192;2023-02-28T06:37:13;102165.11;;;-3.12;66.95
39177;BME280;24904;52.208;21.192;2023-02-28T06:42:19;102156.58;;;-2.94;66.95
39177;BME280;24904;52.208;21.192;2023-02-28T06:47:25;102146.69;;;-2.79;66.88
39177;BME280;24904;52.208;21.192;2023-02-28T06:52:30;102139.65;;;-2.62;67.05
39177;BME280;24904;52.208;21.192;2023-02-28T06:57:36;102136.92;;;-2.43;67.47
39177;BME280;24904;52.208;21.192;2023-02-28T07:02:41;102134.30;;;-2.21;67.59
39177;BME280;24904;52.208;21.192;2023-02-28T07:07:47;102132.08;;;-2.00;67.41
39177;BME280;24904;52.208;21.192;2023-02-28T07:12:52;102124.48;;;-1.76;67.61
39177;BME280;24904;52.208;21.192;2023-02-28T07:17:57;102123.95;;;-1.48;67.55
39177;BME280;24904;52.208;21.192;2023-02-28T07:23:02;102128.05;;;-1.18;67.30
39177;BME280;24904;52.208;21.192;2023-02-28T07:28:07;102129.27;;;-0.94;66.64
39177;BME280;24904;52.208;21.192;2023-02-28T07:33:13;102127.27;;;-0.63;66.06
39177;BME280;24904;52.208;21.192;2023-02-28T07:38:19;102121.67;;;-0.32;64.39
39177;BME280;24904;52.208;21.192;2023-02-28T07:43:24;102118.73;;;-0.01;63.31
39177;BME280;24904;52.208;21.192;2023-02-28T07:48:30;102116.33;;;0.27;62.45
39177;BME280;24904;52.208;21.192;2023-02-28T07:53:35;102118.58;;;0.49;61.70
39177;BME280;24904;52.208;21.192;2023-02-28T07:58:40;102120.52;;;0.64;60.33
39177;BME280;24904;52.208;21.192;2023-02-28T08:03:46;102124.49;;;0.81;59.79
39177;BME280;24904;52.208;21.192;2023-02-28T08:08:52;102127.23;;;0.91;58.93
39177;BME280;24904;52.208;21.192;2023-02-28T08:13:59;102130.19;;;1.11;58.22
39177;BME280;24904;52.208;21.192;2023-02-28T08:19:04;102131.98;;;1.27;57.76
39177;BME280;24904;52.208;21.192;2023-02-28T08:24:10;102125.64;;;1.43;57.66
39177;BME280;24904;52.208;21.192;2023-02-28T08:29:15;102121.15;;;1.57;56.91
39177;BME280;24904;52.208;21.192;2023-02-28T08:34:20;102119.06;;;1.73;56.63
39177;BME280;24904;52.208;21.192;2023-02-28T08:39:26;102120.24;;;1.82;55.80
39177;BME280;24904;52.208;21.192;2023-02-28T08:44:32;102120.50;;;1.88;55.50
39177;BME280;24904;52.208;21.192;2023-02-28T08:49:37;102123.55;;;1.81;54.52
39177;BME280;24904;52.208;21.192;2023-02-28T08:54:43;102128.69;;;1.79;54.43
39177;BME280;24904;52.208;21.192;2023-02-28T08:59:48;102129.70;;;1.92;54.67
39177;BME280;24904;52.208;21.192;2023-02-28T09:04:53;102127.96;;;1.99;54.28
39177;BME280;24904;52.208;21.192;2023-02-28T09:09:58;102129.17;;;2.11;54.01
39177;BME280;24904;52.208;21.192;2023-02-28T09:15:04;102127.31;;;2.18;53.36
39177;BME280;24904;52.208;21.192;2023-02-28T09:20:12;102129.02;;;2.23;53.60
39177;BME280;24904;52.208;21.192;2023-02-28T09:25:17;102134.80;;;2.29;53.40
39177;BME280;24904;52.208;21.192;2023-02-28T09:30:22;102134.96;;;2.30;52.92
39177;BME280;24904;52.208;21.192;2023-02-28T09:35:27;102138.39;;;2.37;52.72
39177;BME280;24904;52.208;21.192;2023-02-28T09:40:47;102134.70;;;2.52;52.76
39177;BME280;24904;52.208;21.192;2023-02-28T09:45:56;102129.44;;;2.62;52.43
39177;BME280;24904;52.208;21.192;2023-02-28T09:51:05;102131.08;;;2.50;51.49
39177;BME280;24904;52.208;21.192;2023-02-28T09:56:20;102128.95;;;2.41;52.17
39177;BME280;24904;52.208;21.192;2023-02-28T10:01:34;102131.34;;;2.51;52.02
39177;BME280;24904;52.208;21.192;2023-02-28T10:06:44;102136.77;;;2.64;52.20
39177;BME280;24904;52.208;21.192;2023-02-28T10:11:52;102138.29;;;2.83;52.02
39177;BME280;24904;52.208;21.192;2023-02-28T10:17:01;102135.58;;;3.00;51.67
39177;BME280;24904;52.208;21.192;2023-02-28T10:22:14;102138.34;;;3.08;51.36
39177;BME280;24904;52.208;21.192;2023-02-28T10:27:21;102136.50;;;3.23;51.40
39177;BME280;24904;52.208;21.192;2023-02-28T10:32:29;102136.33;;;3.25;50.74
39177;BME280;24904;52.208;21.192;2023-02-28T10:37:35;102133.42;;;3.15;50.08
39177;BME280;24904;52.208;21.192;2023-02-28T10:42:42;102136.33;;;3.09;50.33
39177;BME280;24904;52.208;21.192;2023-02-28T10:48:00;102130.24;;;3.08;50.19
39177;BME280;24904;52.208;21.192;2023-02-28T10:53:22;102128.51;;;3.03;49.43
39177;BME280;24904;52.208;21.192;2023-02-28T10:58:32;102123.39;;;2.94;50.07
39177;BME280;24904;52.208;21.192;2023-02-28T11:03:47;102116.40;;;3.11;50.79
39177;BME280;24904;52.208;21.192;2023-02-28T11:08:55;102111.70;;;3.21;49.84
39177;BME280;24904;52.208;21.192;2023-02-28T11:14:05;102103.91;;;3.24;50.20
39177;BME280;24904;52.208;21.192;2023-02-28T11:19:20;102096.70;;;3.24;49.22
39177;BME280;24904;52.208;21.192;2023-02-28T11:24:30;102090.75;;;3.06;49.05
39177;BME280;24904;52.208;21.192;2023-02-28T11:29:48;102083.66;;;3.05;49.18
39177;BME280;24904;52.208;21.192;2023-02-28T11:35:11;102079.75;;;3.19;49.91
39177;BME280;24904;52.208;21.192;2023-02-28T11:40:23;102069.85;;;3.39;49.66
39177;BME280;24904;52.208;21.192;2023-02-28T11:45:44;102063.17;;;3.50;49.55
39177;BME280;24904;52.208;21.192;2023-02-28T11:51:00;102054.33;;;3.49;48.70
39177;BME280;24904;52.208;21.192;2023-02-28T11:56:14;102046.73;;;3.55;49.44
39177;BME280;24904;52.208;21.192;2023-02-28T12:01:32;102040.23;;;3.70;48.90
39177;BME280;24904;52.208;21.192;2023-02-28T12:06:47;102038.48;;;3.58;48.67
39177;BME280;24904;52.208;21.192;2023-02-28T12:11:58;102034.11;;;3.66;48.57
39177;BME280;24904;52.208;21.192;2023-02-28T12:17:12;102032.65;;;3.57;48.30
39177;BME280;24904;52.208;21.192;2023-02-28T12:22:32;102029.58;;;3.63;48.68
39177;BME280;24904;52.208;21.192;2023-02-28T12:27:45;102016.89;;;3.71;48.74
39177;BME280;24904;52.208;21.192;2023-02-28T12:32:54;102013.49;;;3.74;48.50
39177;BME280;24904;52.208;21.192;2023-02-28T12:38:05;102009.83;;;3.81;48.64
39177;BME280;24904;52.208;21.192;2023-02-28T12:43:15;102002.54;;;3.89;48.54
39177;BME280;24904;52.208;21.192;2023-02-28T12:48:27;101996.59;;;3.97;48.51
39177;BME280;24904;52.208;21.192;2023-02-28T12:53:45;101989.14;;;4.01;47.98
39177;BME280;24904;52.208;21.192;2023-02-28T12:58:58;101990.98;;;4.02;47.98
39177;BME280;24904;52.208;21.192;2023-02-28T13:09:36;101986.90;;;4.11;47.94
39177;BME280;24904;52.208;21.192;2023-02-28T13:14:42;101981.34;;;4.15;47.79
39177;BME280;24904;52.208;21.192;2023-02-28T13:20:01;101972.54;;;4.19;47.52
39177;BME280;24904;52.208;21.192;2023-02-28T13:31:07;101956.27;;;4.18;47.41
39177;BME280;24904;52.208;21.192;2023-02-28T13:36:25;101959.10;;;4.19;47.01
39177;BME280;24904;52.208;21.192;2023-02-28T13:41:47;101951.09;;;4.13;46.88
39177;BME280;24904;52.208;21.192;2023-02-28T13:47:19;101947.45;;;4.08;46.60
39177;BME280;24904;52.208;21.192;2023-02-28T13:52:25;101940.65;;;4.10;47.07
39177;BME280;24904;52.208;21.192;2023-02-28T13:57:41;101931.37;;;4.12;46.85
39177;BME280;24904;52.208;21.192;2023-02-28T14:03:07;101928.83;;;4.18;46.63
39177;BME280;24904;52.208;21.192;2023-02-28T14:08:19;101921.77;;;4.11;46.33
39177;BME280;24904;52.208;21.192;2023-02-28T14:13:44;101915.01;;;4.15;46.59
39177;BME280;24904;52.208;21.192;2023-02-28T14:18:55;101911.69;;;4.18;46.28
39177;BME280;24904;52.208;21.192;2023-02-28T14:24:28;101904.27;;;4.24;46.40
39177;BME280;24904;52.208;21.192;2023-02-28T14:35:45;101896.10;;;4.29;46.54
39177;BME280;24904;52.208;21.192;2023-02-28T14:40:57;101896.95;;;4.26;46.14
39177;BME280;24904;52.208;21.192;2023-02-28T14:46:04;101891.67;;;4.27;46.90
39177;BME280;24904;52.208;21.192;2023-02-28T14:51:10;101887.27;;;4.26;47.14
39177;BME280;24904;52.208;21.192;2023-02-28T14:56:23;101882.39;;;4.22;47.13
39177;BME280;24904;52.208;21.192;2023-02-28T15:01:28;101886.89;;;4.19;47.59
39177;BME280;24904;52.208;21.192;2023-02-28T15:06:35;101889.15;;;4.10;46.89
39177;BME280;24904;52.208;21.192;2023-02-28T15:11:40;101881.62;;;4.09;46.67
39177;BME280;24904;52.208;21.192;2023-02-28T15:16:47;101877.48;;;4.02;46.39
39177;BME280;24904;52.208;21.192;2023-02-28T15:21:58;101884.08;;;3.97;46.82
39177;BME280;24904;52.208;21.192;2023-02-28T15:27:06;101884.16;;;3.91;46.75
39177;BME280;24904;52.208;21.192;2023-02-28T15:32:30;101891.27;;;3.84;47.88
39177;BME280;24904;52.208;21.192;2023-02-28T15:37:47;101892.89;;;3.73;48.35
39177;BME280;24904;52.208;21.192;2023-02-28T15:43:05;101881.76;;;3.60;48.17
39177;BME280;24904;52.208;21.192;2023-02-28T15:56:26;101884.45;;;3.32;48.55
39177;BME280;24904;52.208;21.192;2023-02-28T16:01:33;101891.08;;;3.17;48.52
39177;BME280;24904;52.208;21.192;2023-02-28T16:06:40;101889.86;;;2.98;48.76
39177;BME280;24904;52.208;21.192;2023-02-28T16:11:48;101896.86;;;2.77;49.03
39177;BME280;24904;52.208;21.192;2023-02-28T16:16:55;101898.04;;;2.61;49.05
39177;BME280;24904;52.208;21.192;2023-02-28T16:22:01;101905.59;;;2.46;49.40
39177;BME280;24904;52.208;21.192;2023-02-28T16:27:06;101907.59;;;2.26;49.45
39177;BME280;24904;52.208;21.192;2023-02-28T16:32:12;101906.27;;;2.03;49.90
39177;BME280;24904;52.208;21.192;2023-02-28T16:37:19;101907.73;;;1.84;50.41
39177;BME280;24904;52.208;21.192;2023-02-28T16:42:27;101902.31;;;1.66;50.80
39177;BME280;24904;52.208;21.192;2023-02-28T16:47:32;101900.28;;;1.47;51.09
39177;BME280;24904;52.208;21.192;2023-02-28T16:52:37;101909.64;;;1.33;51.69
39177;BME280;24904;52.208;21.192;2023-02-28T16:57:43;101913.30;;;1.22;51.85
39177;BME280;24904;52.208;21.192;2023-02-28T17:02:49;101919.34;;;1.07;52.69
39177;BME280;24904;52.208;21.192;2023-02-28T17:07:55;101923.11;;;0.91;53.25
39177;BME280;24904;52.208;21.192;2023-02-28T17:13:00;101925.28;;;0.80;53.26
39177;BME280;24904;52.208;21.192;2023-02-28T17:18:05;101933.95;;;0.71;53.70
39177;BME280;24904;52.208;21.192;2023-02-28T17:23:12;101936.70;;;0.62;53.87
39177;BME280;24904;52.208;21.192;2023-02-28T17:28:17;101942.10;;;0.51;54.27
39177;BME280;24904;52.208;21.192;2023-02-28T17:33:22;101939.30;;;0.47;54.71
39177;BME280;24904;52.208;21.192;2023-02-28T17:38:27;101938.84;;;0.39;54.88
39177;BME280;24904;52.208;21.192;2023-02-28T17:43:32;101930.10;;;0.37;55.14
39177;BME280;24904;52.208;21.192;2023-02-28T17:48:37;101926.63;;;0.29;55.43
39177;BME280;24904;52.208;21.192;2023-02-28T17:53:42;101926.14;;;0.23;55.86
39177;BME280;24904;52.208;21.192;2023-02-28T17:58:48;101924.89;;;0.24;56.40
39177;BME280;24904;52.208;21.192;2023-02-28T18:03:53;101921.27;;;0.13;56.26
39177;BME280;24904;52.208;21.192;2023-02-28T18:08:59;101914.72;;;0.07;56.92
39177;BME280;24904;52.208;21.192;2023-02-28T18:14:04;101908.07;;;0.04;57.09
39177;BME280;24904;52.208;21.192;2023-02-28T18:19:09;101895.41;;;-0.07;57.03
39177;BME280;24904;52.208;21.192;2023-02-28T18:24:19;101892.42;;;-0.13;57.24
39177;BME280;24904;52.208;21.192;2023-02-28T18:29:26;101881.02;;;-0.16;57.71
39177;BME280;24904;52.208;21.192;2023-02-28T18:34:32;101884.15;;;-0.14;57.98
39177;BME280;24904;52.208;21.192;2023-02-28T18:39:40;101885.36;;;-0.10;58.32
39177;BME280;24904;52.208;21.192;2023-02-28T18:44:45;101869.27;;;-0.12;58.40
39177;BME280;24904;52.208;21.192;2023-02-28T18:49:50;101871.22;;;-0.12;58.78
39177;BME280;24904;52.208;21.192;2023-02-28T18:54:55;101869.44;;;-0.03;59.01
39177;BME280;24904;52.208;21.192;2023-02-28T19:00:00;101873.03;;;-0.16;58.70
39177;BME280;24904;52.208;21.192;2023-02-28T19:05:06;101873.98;;;-0.27;58.83
39177;BME280;24904;52.208;21.192;2023-02-28T19:10:14;101878.71;;;-0.36;59.28
39177;BME280;24904;52.208;21.192;2023-02-28T19:15:21;101891.34;;;-0.40;59.67
39177;BME280;24904;52.208;21.192;2023-02-28T19:20:26;101897.73;;;-0.43;59.71
39177;BME280;24904;52.208;21.192;2023-02-28T19:25:31;101903.92;;;-0.45;60.09
39177;BME280;24904;52.208;21.192;2023-02-28T19:30:36;101900.83;;;-0.54;60.03
39177;BME280;24904;52.208;21.192;2023-02-28T19:35:42;101899.64;;;-0.63;60.27
39177;BME280;24904;52.208;21.192;2023-02-28T19:40:47;101905.64;;;-0.62;60.37
39177;BME280;24904;52.208;21.192;2023-02-28T19:45:52;101911.14;;;-0.64;60.45
39177;BME280;24904;52.208;21.192;2023-02-28T19:51:01;101917.71;;;-0.74;60.93
39177;BME280;24904;52.208;21.192;2023-02-28T19:56:08;101919.64;;;-0.80;60.96
39177;BME280;24904;52.208;21.192;2023-02-28T20:01:15;101907.02;;;-0.81;61.21
39177;BME280;24904;52.208;21.192;2023-02-28T20:06:20;101917.67;;;-0.92;61.21
39177;BME280;24904;52.208;21.192;2023-02-28T20:11:25;101915.06;;;-0.98;61.51
39177;BME280;24904;52.208;21.192;2023-02-28T20:16:31;101921.93;;;-1.01;61.69
39177;BME280;24904;52.208;21.192;2023-02-28T20:21:36;101933.45;;;-1.06;61.53
39177;BME280;24904;52.208;21.192;2023-02-28T20:26:41;101936.46;;;-1.12;61.90
39177;BME280;24904;52.208;21.192;2023-02-28T20:31:46;101925.95;;;-1.19;61.99
39177;BME280;24904;52.208;21.192;2023-02-28T20:45:23;101888.72;;;-1.21;62.53
39177;BME280;24904;52.208;21.192;2023-02-28T20:50:26;101899.05;;;-1.24;62.25
39177;BME280;24904;52.208;21.192;2023-02-28T20:55:29;101910.29;;;-1.33;62.43
39177;BME280;24904;52.208;21.192;2023-02-28T21:00:32;101906.92;;;-1.42;62.67
39177;BME280;24904;52.208;21.192;2023-02-28T21:05:35;101899.05;;;-1.44;62.90
39177;BME280;24904;52.208;21.192;2023-02-28T21:10:38;101896.29;;;-1.44;63.04
39177;BME280;24904;52.208;21.192;2023-02-28T21:15:41;101890.94;;;-1.48;63.18
39177;BME280;24904;52.208;21.192;2023-02-28T21:20:44;101890.09;;;-1.59;63.04
39177;BME280;24904;52.208;21.192;2023-02-28T21:25:47;101893.39;;;-1.66;63.18
39177;BME280;24904;52.208;21.192;2023-02-28T21:30:50;101891.03;;;-1.75;63.41
39177;BME280;24904;52.208;21.192;2023-02-28T21:36:01;101892.94;;;-1.81;63.31
39177;BME280;24904;52.208;21.192;2023-02-28T21:41:05;101894.20;;;-1.83;63.67
39177;BME280;24904;52.208;21.192;2023-02-28T21:46:11;101890.71;;;-1.88;63.72
39177;BME280;24904;52.208;21.192;2023-02-28T21:51:19;101893.49;;;-1.90;63.73
39177;BME280;24904;52.208;21.192;2023-02-28T21:56:24;101895.08;;;-1.95;64.02
39177;BME280;24904;52.208;21.192;2023-02-28T22:01:29;101896.00;;;-1.97;64.00
39177;BME280;24904;52.208;21.192;2023-02-28T22:06:34;101892.23;;;-1.97;64.31
39177;BME280;24904;52.208;21.192;2023-02-28T22:11:38;101893.83;;;-1.99;64.32
39177;BME280;24904;52.208;21.192;2023-02-28T22:16:42;101887.80;;;-2.04;64.55
39177;BME280;24904;52.208;21.192;2023-02-28T22:21:46;101888.68;;;-2.02;64.46
39177;BME280;24904;52.208;21.192;2023-02-28T22:26:49;101886.73;;;-2.11;64.41
39177;BME280;24904;52.208;21.192;2023-02-28T22:31:52;101878.60;;;-2.14;64.61
39177;BME280;24904;52.208;21.192;2023-02-28T22:36:56;101873.95;;;-2.18;64.52
39177;BME280;24904;52.208;21.192;2023-02-28T22:41:59;101868.64;;;-2.22;64.79
39177;BME280;24904;52.208;21.192;2023-02-28T22:47:02;101866.54;;;-2.22;64.67
39177;BME280;24904;52.208;21.192;2023-02-28T22:52:05;101860.69;;;-2.15;65.50
39177;BME280;24904;52.208;21.192;2023-02-28T22:57:08;101867.55;;;-1.95;65.69
39177;BME280;24904;52.208;21.192;2023-02-28T23:02:11;101872.44;;;-1.84;65.82
39177;BME280;24904;52.208;21.192;2023-02-28T23:07:14;101879.20;;;-1.81;65.46
39177;BME280;24904;52.208;21.192;2023-02-28T23:12:17;101894.80;;;-1.94;65.34
39177;BME280;24904;52.208;21.192;2023-02-28T23:17:21;101896.31;;;-1.98;65.20
39177;BME280;24904;52.208;21.192;2023-02-28T23:22:24;101891.27;;;-2.08;65.40
39177;BME280;24904;52.208;21.192;2023-02-28T23:27:27;101880.35;;;-2.19;65.26
39177;BME280;24904;52.208;21.192;2023-02-28T23:32:30;101869.81;;;-2.23;65.32
39177;BME280;24904;52.208;21.192;2023-02-28T23:37:33;101870.70;;;-2.25;65.50
39177;BME280;24904;52.208;21.192;2023-02-28T23:42:36;101873.29;;;-2.29;65.59
39177;BME280;24904;52.208;21.192;2023-02-28T23:47:40;101877.02;;;-2.36;65.44
39177;BME280;24904;52.208;21.192;2023-02-28T23:52:43;101884.55;;;-2.32;65.76
39177;BME280;24904;52.208;21.192;2023-02-28T23:57:46;101880.08;;;-2.24;66.10
